Time;durP1;ratioP1;P1;durP2;ratioP2;P2;SDS_P1;SDS_P2;PMS_P1;PMS_P2;Temp;Humidity;BMP_temperature;BMP_pressure;BME280_temperature;BME280_humidity;BME280_pressure;Samples;Min_cycle;Max_cycle;Signal;HPM_P1;HPM_P2
2023/06/06 00:01:53;;;;;;;;;;;;;;;14.19;57.79;99248.64;135949;1276;22524;-64
2023/06/06 00:04:57;;;;;;;23.90;6.40;;;;;;;14.20;57.65;99243.66;135948;1276;24693;-62
2023/06/06 00:08:00;;;;;;;21.90;6.50;;;;;;;14.13;57.89;99244.67;135956;1276;22692;-67
2023/06/06 00:11:03;;;;;;;;;;;;;;;14.01;58.28;99241.27;135981;1276;22493;-65
2023/06/06 00:14:09;;;;;;;23.20;6.00;;;;;;;14.03;58.62;99236.88;135955;1276;22517;-66
2023/06/06 00:17:12;;;;;;;19.30;5.60;;;;;;;13.98;59.12;99236.20;135954;1276;22633;-66
2023/06/06 00:20:16;;;;;;;20.30;5.80;;;;;;;13.99;59.19;99233.32;135962;1276;25240;-63
2023/06/06 00:23:18;;;;;;;22.10;5.20;;;;;;;13.96;59.83;99235.80;135973;1276;22527;-63
2023/06/06 00:26:23;;;;;;;19.90;5.40;;;;;;;13.84;60.20;99235.72;135922;1276;22543;-69
2023/06/06 00:29:25;;;;;;;;;;;;;;;13.82;60.53;99233.76;135938;1263;22524;-64
2023/06/06 00:32:29;;;;;;;20.80;6.00;;;;;;;13.86;60.32;99232.81;135936;1276;22565;-64
2023/06/06 00:35:32;;;;;;;18.90;5.60;;;;;;;13.92;60.15;99230.05;135883;1276;22564;-64
2023/06/06 00:38:39;;;;;;;21.70;6.00;;;;;;;13.99;60.27;99229.58;135939;1276;22543;-66
2023/06/06 00:41:42;;;;;;;23.10;6.40;;;;;;;14.08;60.14;99227.75;135973;1276;22520;-63
2023/06/06 00:44:44;;;;;;;;;;;;;;;14.17;59.97;99222.35;135864;1276;22506;-65
2023/06/06 00:47:47;;;;;;;21.40;5.90;;;;;;;14.25;59.66;99219.77;135968;1276;22618;-63
2023/06/06 00:50:50;;;;;;;24.80;6.60;;;;;;;14.28;59.81;99216.54;135950;1276;24227;-60
2023/06/06 00:53:53;;;;;;;21.10;6.20;;;;;;;14.30;59.64;99217.05;135928;1276;22678;-62
2023/06/06 00:56:56;;;;;;;19.40;5.90;;;;;;;14.45;59.05;99215.86;135984;1276;22516;-66
2023/06/06 01:00:06;;;;;;;17.40;5.40;;;;;;;14.61;58.73;99214.75;135958;1276;22539;-66
2023/06/06 01:03:24;;;;;;;22.70;5.90;;;;;;;14.63;58.96;99208.62;135397;1276;22816;-65
2023/06/06 01:06:27;;;;;;;19.20;5.70;;;;;;;14.82;58.78;99206.95;135924;1260;22547;-65
2023/06/06 01:09:29;;;;;;;23.40;6.70;;;;;;;15.02;57.95;99206.52;135985;1276;22575;-66
2023/06/06 01:12:32;;;;;;;;;;;;;;;15.15;57.85;99208.73;135978;1276;22572;-62
2023/06/06 01:15:35;;;;;;;20.30;6.10;;;;;;;15.17;58.05;99204.02;135913;1276;22512;-62
2023/06/06 01:18:38;;;;;;;20.70;6.50;;;;;;;15.28;57.26;99198.10;135960;1276;22523;-67
2023/06/06 01:21:45;;;;;;;21.50;5.60;;;;;;;15.29;58.17;99196.99;135957;1276;22527;-69
2023/06/06 01:24:47;;;;;;;18.50;5.60;;;;;;;15.19;59.50;99198.96;135945;1276;25237;-64
2023/06/06 01:27:53;;;;;;;21.40;6.10;;;;;;;15.16;59.25;99206.07;135977;1264;22635;-67
2023/06/06 01:30:56;;;;;;;22.80;5.40;;;;;;;15.07;58.85;99202.27;135984;1276;22539;-66
2023/06/06 01:33:58;;;;;;;;;;;;;;;15.07;59.28;99201.38;135988;1276;22508;-69
2023/06/06 01:37:01;;;;;;;20.20;6.00;;;;;;;15.11;59.82;99205.86;135956;1260;22635;-64
2023/06/06 01:40:05;;;;;;;21.00;6.50;;;;;;;15.17;59.58;99202.61;135954;1276;22547;-65
2023/06/06 01:43:09;;;;;;;22.20;6.10;;;;;;;15.18;59.65;99206.45;136016;1276;22547;-69
2023/06/06 01:46:15;;;;;;;21.50;6.30;;;;;;;15.19;59.74;99205.83;135943;1276;22542;-61
2023/06/06 01:49:18;;;;;;;21.50;6.10;;;;;;;15.17;59.70;99211.45;135966;1276;25462;-66
2023/06/06 01:52:27;;;;;;;23.40;5.80;;;;;;;15.23;59.52;99210.13;135948;1276;22541;-62
2023/06/06 01:55:30;;;;;;;20.10;6.30;;;;;;;15.31;59.38;99211.80;135948;1276;22524;-63
2023/06/06 01:58:33;;;;;;;24.70;6.00;;;;;;;15.40;59.68;99210.22;135940;1276;22529;-66
2023/06/06 02:01:35;;;;;;;;;;;;;;;15.16;60.46;99204.79;135954;1276;22501;-66
2023/06/06 02:04:37;;;;;;;17.40;5.50;;;;;;;15.06;61.83;99207.84;135921;1276;22520;-66
2023/06/06 02:07:41;;;;;;;;;;;;;;;15.13;61.46;99203.97;135956;1267;22491;-65
2023/06/06 02:10:43;;;;;;;21.10;5.80;;;;;;;15.15;61.64;99207.17;135960;1276;22527;-69
2023/06/06 02:13:47;;;;;;;19.20;5.80;;;;;;;15.17;60.96;99205.24;135967;1276;22527;-63
2023/06/06 02:16:52;;;;;;;21.10;6.20;;;;;;;15.12;61.50;99203.86;135959;1276;22520;-62
2023/06/06 02:19:56;;;;;;;20.60;6.00;;;;;;;15.11;61.78;99204.27;135956;1276;22523;-67
2023/06/06 02:22:59;;;;;;;20.20;6.30;;;;;;;15.07;61.74;99201.93;135889;1275;22651;-64
2023/06/06 02:26:03;;;;;;;19.60;5.80;;;;;;;15.02;61.58;99202.48;135951;1276;22524;-64
2023/06/06 02:29:07;;;;;;;19.70;6.10;;;;;;;15.03;61.42;99198.72;135978;1276;22541;-68
2023/06/06 02:32:10;;;;;;;21.00;5.80;;;;;;;15.01;61.30;99197.30;136026;1276;22554;-63
2023/06/06 02:35:14;;;;;;;23.00;5.80;;;;;;;14.99;61.38;99197.08;135955;1276;22581;-65
2023/06/06 02:38:18;;;;;;;18.80;5.70;;;;;;;15.06;61.27;99201.64;135956;1276;22540;-63
2023/06/06 02:41:21;;;;;;;17.70;5.70;;;;;;;15.00;61.73;99202.62;135980;1276;22527;-63
2023/06/06 02:44:24;;;;;;;21.80;6.10;;;;;;;15.03;62.06;99203.45;135933;1276;22554;-65
2023/06/06 02:47:27;;;;;;;21.40;6.50;;;;;;;15.03;62.41;99200.31;135877;1276;22524;-65
2023/06/06 02:50:31;;;;;;;;;;;;;;;14.98;62.67;99198.52;135942;1267;22752;-63
2023/06/06 02:53:34;;;;;;;20.90;5.70;;;;;;;14.96;63.44;99197.67;135946;1276;22551;-69
2023/06/06 02:56:37;;;;;;;20.50;5.60;;;;;;;14.99;63.81;99199.02;135939;1276;22524;-66
2023/06/06 02:59:40;;;;;;;19.60;5.60;;;;;;;14.98;63.96;99197.48;135999;1276;22550;-67
2023/06/06 03:02:44;;;;;;;18.50;5.40;;;;;;;15.00;63.88;99199.45;135915;1276;22519;-62
2023/06/06 03:05:51;;;;;;;21.70;5.90;;;;;;;15.00;63.79;99195.79;135899;1276;22523;-62
2023/06/06 03:08:57;;;;;;;21.20;6.00;;;;;;;15.11;63.67;99196.04;135961;1260;22512;-67
2023/06/06 03:12:00;;;;;;;26.60;6.70;;;;;;;15.18;63.45;99191.43;135985;1276;22527;-65
2023/06/06 03:15:04;;;;;;;20.50;6.30;;;;;;;15.26;63.45;99187.34;135964;1256;24180;-65
2023/06/06 03:18:09;;;;;;;19.20;5.70;;;;;;;15.31;63.57;99182.40;135973;1276;22571;-63
2023/06/06 03:21:21;;;;;;;24.50;5.80;;;;;;;15.46;63.25;99186.58;135929;1276;22527;-62
2023/06/06 03:24:25;;;;;;;25.40;6.30;;;;;;;15.49;62.79;99182.98;135947;1276;23774;-62
2023/06/06 03:27:28;;;;;;;23.80;6.60;;;;;;;15.56;62.89;99184.02;135921;1267;22533;-66
2023/06/06 03:30:31;;;;;;;19.60;6.00;;;;;;;15.69;62.43;99181.32;135936;1276;22547;-64
2023/06/06 03:33:35;;;;;;;19.30;5.50;;;;;;;15.79;62.26;99179.98;135912;1276;24268;-61
2023/06/06 03:36:40;;;;;;;20.80;6.20;;;;;;;15.80;62.33;99181.87;135917;1276;22531;-62
2023/06/06 03:39:43;;;;;;;23.30;6.20;;;;;;;15.92;62.18;99179.52;135920;1276;22532;-66
2023/06/06 03:42:48;;;;;;;19.50;5.60;;;;;;;15.94;62.80;99178.83;135907;1276;22527;-64
2023/06/06 03:45:51;;;;;;;19.10;5.80;;;;;;;16.02;63.22;99180.02;135887;1276;22534;-67
2023/06/06 03:48:54;;;;;;;18.40;5.10;;;;;;;16.15;62.78;99179.88;135811;1276;22529;-60
2023/06/06 03:51:57;;;;;;;17.70;5.40;;;;;;;16.31;62.47;99176.02;135968;1276;22530;-60
2023/06/06 03:54:59;;;;;;;22.70;5.80;;;;;;;16.47;62.28;99177.39;135996;1260;24305;-63
2023/06/06 03:58:02;;;;;;;19.70;5.40;;;;;;;16.59;62.56;99175.30;135926;1276;22522;-64
2023/06/06 04:01:10;;;;;;;16.40;5.00;;;;;;;16.76;62.76;99177.02;135939;1276;22526;-63
2023/06/06 04:04:15;;;;;;;16.00;4.70;;;;;;;16.95;62.60;99180.41;135853;1276;22528;-62
2023/06/06 04:07:28;;;;;;;22.10;5.70;;;;;;;17.11;62.46;99181.23;135950;1276;22513;-64
2023/06/06 04:10:31;;;;;;;20.00;5.50;;;;;;;17.33;62.80;99178.88;135957;1276;22555;-66
2023/06/06 04:13:34;;;;;;;17.70;5.10;;;;;;;17.66;62.35;99182.53;135923;1276;25265;-65
2023/06/06 04:16:37;;;;;;;18.40;5.00;;;;;;;17.85;59.76;99180.77;135951;1276;22598;-68
2023/06/06 04:19:40;;;;;;;19.20;4.80;;;;;;;17.97;60.09;99177.44;135992;1276;22571;-62
2023/06/06 04:22:45;;;;;;;15.90;4.70;;;;;;;18.06;61.45;99177.95;135932;1276;22526;-64
2023/06/06 04:25:48;;;;;;;19.40;5.30;;;;;;;18.32;61.69;99172.64;135865;1276;25321;-63
2023/06/06 04:28:53;;;;;;;16.30;4.60;;;;;;;18.38;60.81;99172.46;135967;1276;22537;-62
2023/06/06 04:31:56;;;;;;;17.10;4.60;;;;;;;18.48;61.21;99172.33;135954;1276;22590;-62
2023/06/06 04:34:59;;;;;;;19.00;5.30;;;;;;;18.64;62.13;99172.13;135964;1276;22636;-64
2023/06/06 04:38:02;;;;;;;;;;;;;;;18.87;62.41;99173.83;135988;1276;22504;-61
2023/06/06 04:41:05;;;;;;;20.90;6.80;;;;;;;19.08;62.61;99167.91;135992;1276;22563;-67
2023/06/06 04:44:10;;;;;;;22.00;6.70;;;;;;;19.24;60.43;99170.83;136014;1258;22625;-67
2023/06/06 04:47:18;;;;;;;19.10;5.40;;;;;;;19.35;60.78;99175.88;135947;1276;22527;-64
2023/06/06 04:50:23;;;;;;;21.60;5.30;;;;;;;19.49;60.14;99170.72;135947;1276;22527;-69
2023/06/06 04:53:25;;;;;;;18.00;4.80;;;;;;;19.75;59.37;99169.37;135969;1276;22543;-65
2023/06/06 04:56:29;;;;;;;20.50;4.70;;;;;;;19.94;59.04;99169.89;135954;1276;22542;-68
2023/06/06 04:59:32;;;;;;;18.70;4.50;;;;;;;20.21;58.90;99169.31;135980;1261;22593;-66
2023/06/06 05:02:35;;;;;;;19.70;4.50;;;;;;;20.46;59.51;99169.55;135853;1276;22479;-66
2023/06/06 05:05:38;;;;;;;14.20;3.90;;;;;;;20.72;58.43;99169.36;135885;1276;22517;-69
2023/06/06 05:08:44;;;;;;;17.40;3.90;;;;;;;20.97;58.07;99165.13;135985;1276;25307;-65
2023/06/06 05:11:49;;;;;;;14.80;4.30;;;;;;;21.21;56.49;99165.84;136020;1276;22520;-65
2023/06/06 05:14:52;;;;;;;13.70;3.40;;;;;;;21.53;55.22;99158.66;135937;1276;22535;-63
2023/06/06 05:17:56;;;;;;;16.40;3.80;;;;;;;21.83;54.72;99160.85;135910;1276;22667;-69
2023/06/06 05:21:02;;;;;;;14.10;3.30;;;;;;;22.32;54.57;99157.59;135980;1276;22635;-67
2023/06/06 05:24:07;;;;;;;13.20;4.00;;;;;;;22.77;52.53;99152.52;135997;1276;22539;-68
2023/06/06 05:27:13;;;;;;;14.90;3.40;;;;;;;23.09;50.75;99156.62;136003;1276;22547;-67
2023/06/06 05:30:17;;;;;;;15.50;3.70;;;;;;;23.33;50.24;99151.73;135939;1276;22524;-67
2023/06/06 05:33:19;;;;;;;15.30;3.50;;;;;;;23.57;49.23;99152.13;135988;1276;22514;-67
2023/06/06 05:36:23;;;;;;;15.80;3.50;;;;;;;23.79;48.66;99150.36;136011;1276;22525;-67
2023/06/06 05:39:26;;;;;;;16.30;4.00;;;;;;;23.90;47.60;99152.13;136002;1276;22546;-66
2023/06/06 05:42:29;;;;;;;13.00;3.40;;;;;;;24.20;47.57;99149.63;135994;1276;22555;-67
2023/06/06 05:45:36;;;;;;;11.90;3.60;;;;;;;24.36;44.89;99147.41;136038;1276;22535;-66
2023/06/06 05:48:39;;;;;;;14.50;3.60;;;;;;;24.34;44.77;99145.84;136012;1276;23001;-71
2023/06/06 05:51:43;;;;;;;13.00;3.50;;;;;;;24.60;44.74;99149.24;135992;1276;22528;-65
2023/06/06 05:54:47;;;;;;;14.90;3.40;;;;;;;24.88;44.08;99150.49;136030;1276;22526;-68
2023/06/06 05:57:51;;;;;;;11.60;3.10;;;;;;;24.87;44.34;99155.02;135943;1276;23145;-67
2023/06/06 06:00:55;;;;;;;14.00;3.00;;;;;;;25.12;43.72;99160.58;135983;1276;22507;-68
2023/06/06 06:03:59;;;;;;;12.30;2.60;;;;;;;25.15;42.22;99162.95;135995;1276;22521;-69
2023/06/06 06:07:03;;;;;;;13.60;3.00;;;;;;;25.16;42.90;99164.34;135987;1276;22519;-66
2023/06/06 06:10:06;;;;;;;16.10;3.00;;;;;;;25.34;41.41;99162.64;136016;1276;22524;-69
2023/06/06 06:13:10;;;;;;;11.00;2.90;;;;;;;25.44;40.62;99164.55;135956;1276;24204;-71
2023/06/06 06:16:14;;;;;;;17.70;3.40;;;;;;;25.51;40.86;99163.67;136049;1276;22530;-67
2023/06/06 06:19:18;;;;;;;8.20;2.80;;;;;;;25.76;40.02;99160.98;136010;1276;22598;-68
2023/06/06 06:22:22;;;;;;;12.70;3.00;;;;;;;25.93;39.73;99158.71;136038;1276;22532;-69
2023/06/06 06:25:26;;;;;;;10.00;2.90;;;;;;;26.04;39.17;99158.55;135996;1276;24346;-67
2023/06/06 06:28:30;;;;;;;16.50;3.40;;;;;;;26.16;37.79;99159.67;135996;1276;22524;-71
2023/06/06 06:31:33;;;;;;;11.10;3.00;;;;;;;26.25;37.51;99159.09;135957;1276;22535;-68
2023/06/06 06:34:37;;;;;;;11.40;3.00;;;;;;;26.31;37.73;99159.79;136010;1276;22536;-69
2023/06/06 06:37:40;;;;;;;12.50;3.10;;;;;;;26.40;37.25;99158.66;135993;1276;24274;-69
2023/06/06 06:40:44;;;;;;;16.80;3.50;;;;;;;26.64;37.14;99163.80;136036;1276;22515;-67
2023/06/06 06:43:48;;;;;;;18.20;3.00;;;;;;;26.79;37.12;99160.05;135967;1276;22537;-66
2023/06/06 06:46:52;;;;;;;11.40;3.00;;;;;;;26.89;36.14;99158.63;136038;1276;22599;-67
2023/06/06 06:49:57;;;;;;;14.00;3.90;;;;;;;26.87;35.58;99158.52;135989;1276;22517;-69
2023/06/06 06:53:03;;;;;;;13.50;3.00;;;;;;;26.87;34.71;99155.83;135955;1276;22558;-71
2023/06/06 06:56:07;;;;;;;13.20;3.20;;;;;;;27.13;35.45;99155.45;136011;1276;22533;-66
2023/06/06 06:59:11;;;;;;;11.70;3.10;;;;;;;27.57;35.89;99156.14;135996;1276;22523;-68
2023/06/06 07:02:15;;;;;;;11.20;3.10;;;;;;;27.89;35.06;99152.17;136032;1276;23147;-70
2023/06/06 07:05:19;;;;;;;11.30;2.90;;;;;;;28.01;33.92;99156.56;136038;1276;25367;-66
2023/06/06 07:08:22;;;;;;;12.00;3.20;;;;;;;27.85;33.58;99158.08;135953;1276;23841;-67
2023/06/06 07:11:27;;;;;;;13.00;3.10;;;;;;;27.67;34.21;99159.56;135923;1276;22550;-68
2023/06/06 07:14:30;;;;;;;14.10;3.40;;;;;;;27.71;33.90;99153.20;136022;1276;22522;-68
2023/06/06 07:17:34;;;;;;;13.60;3.70;;;;;;;27.79;33.76;99152.35;136014;1276;22516;-67
2023/06/06 07:20:36;;;;;;;14.10;3.60;;;;;;;28.23;34.41;99151.17;136011;1276;25913;-68
2023/06/06 07:23:40;;;;;;;13.00;3.10;;;;;;;28.73;34.14;99150.17;136049;1260;22524;-68
2023/06/06 07:26:44;;;;;;;15.10;3.50;;;;;;;29.20;33.56;99151.63;136049;1276;22552;-69
2023/06/06 07:29:47;;;;;;;14.80;3.40;;;;;;;29.69;32.91;99149.10;135857;1276;23795;-68
2023/06/06 07:32:50;;;;;;;12.10;3.50;;;;;;;29.84;32.16;99142.98;136052;1260;24234;-68
2023/06/06 07:35:53;;;;;;;14.30;3.40;;;;;;;30.17;31.82;99141.09;136048;1276;22532;-69
2023/06/06 07:38:57;;;;;;;15.20;3.30;;;;;;;30.33;30.66;99139.30;136013;1276;22541;-70
2023/06/06 07:42:00;;;;;;;15.30;3.50;;;;;;;30.50;31.82;99139.55;136055;1276;22540;-67
2023/06/06 07:45:04;;;;;;;12.90;2.90;;;;;;;30.62;31.09;99138.02;136005;1276;22516;-69
2023/06/06 07:48:06;;;;;;;19.00;3.00;;;;;;;30.53;29.94;99133.65;136033;1276;22609;-68
2023/06/06 07:51:08;;;;;;;12.70;3.00;;;;;;;30.27;29.89;99132.11;135946;1259;22527;-71
2023/06/06 07:54:12;;;;;;;17.20;3.10;;;;;;;30.15;30.18;99131.17;135805;1276;22531;-69
2023/06/06 07:57:16;;;;;;;11.60;3.00;;;;;;;30.28;29.52;99128.65;135924;1276;22527;-67
2023/06/06 08:00:21;;;;;;;16.00;3.30;;;;;;;30.59;30.61;99122.70;135903;1260;22527;-71
2023/06/06 08:03:24;;;;;;;20.50;3.40;;;;;;;30.78;29.31;99118.64;135803;1276;22524;-69
2023/06/06 08:06:32;;;;;;;14.80;3.40;;;;;;;30.34;29.24;99115.57;136077;1270;22529;-65
2023/06/06 08:09:35;;;;;;;22.60;3.50;;;;;;;30.47;29.84;99113.94;135887;1276;22523;-69
2023/06/06 08:12:38;;;;;;;15.40;4.00;;;;;;;30.53;29.91;99114.29;135974;1270;22750;-68
2023/06/06 08:15:41;;;;;;;16.40;3.50;;;;;;;30.66;29.79;99112.63;136083;1276;22520;-69
2023/06/06 08:18:44;;;;;;;15.20;3.40;;;;;;;30.79;29.47;99101.76;136006;1276;22544;-65
2023/06/06 08:21:48;;;;;;;16.20;3.70;;;;;;;30.62;28.73;99103.95;136078;1276;22642;-69
2023/06/06 08:24:50;;;;;;;16.00;3.70;;;;;;;30.70;29.44;99101.29;135900;1276;22582;-65
2023/06/06 08:27:53;;;;;;;15.20;3.60;;;;;;;30.84;28.46;99100.61;136017;1276;22632;-67
2023/06/06 08:30:56;;;;;;;13.50;3.70;;;;;;;30.80;28.14;99095.34;136016;1276;22516;-70
2023/06/06 08:34:00;;;;;;;17.00;3.60;;;;;;;30.71;28.22;99095.23;136050;1260;22923;-73
2023/06/06 08:37:02;;;;;;;14.10;3.50;;;;;;;30.61;27.88;99092.43;135811;1276;22533;-69
2023/06/06 08:40:09;;;;;;;13.80;3.50;;;;;;;30.81;28.22;99094.54;135907;1276;25370;-68
2023/06/06 08:43:13;;;;;;;16.30;3.80;;;;;;;31.05;28.30;99092.17;136031;1276;22524;-68
2023/06/06 08:46:16;;;;;;;13.00;4.10;;;;;;;31.25;28.15;99087.93;136054;1259;22546;-70
2023/06/06 08:49:19;;;;;;;15.20;3.70;;;;;;;31.58;27.46;99085.34;135976;1276;22569;-64
2023/06/06 08:52:22;;;;;;;18.00;3.70;;;;;;;31.63;26.94;99079.75;135985;1274;22511;-66
2023/06/06 08:55:25;;;;;;;13.60;3.80;;;;;;;31.83;27.01;99083.67;136046;1276;22541;-65
2023/06/06 08:58:28;;;;;;;15.70;3.60;;;;;;;32.15;27.24;99082.24;136030;1259;23066;-65
2023/06/06 09:01:31;;;;;;;13.00;3.70;;;;;;;32.46;25.91;99076.45;136069;1276;22536;-64
2023/06/06 09:04:38;;;;;;;14.20;3.80;;;;;;;32.51;26.05;99077.43;136069;1276;22526;-67
2023/06/06 09:07:41;;;;;;;11.00;3.30;;;;;;;32.87;26.22;99076.77;136080;1276;22529;-65
2023/06/06 09:10:45;;;;;;;13.40;3.60;;;;;;;33.10;25.41;99073.63;136063;1276;22532;-70
2023/06/06 09:13:47;;;;;;;12.20;3.30;;;;;;;33.38;25.46;99074.80;136078;1276;26519;-71
2023/06/06 09:16:50;;;;;;;14.40;3.90;;;;;;;33.50;24.87;99071.10;135937;1276;24378;-68
2023/06/06 09:19:53;;;;;;;10.90;3.50;;;;;;;33.41;25.05;99072.31;136038;1276;22551;-68
2023/06/06 09:22:57;;;;;;;14.40;3.80;;;;;;;33.41;24.40;99066.70;135896;1276;22548;-69
2023/06/06 09:26:04;;;;;;;13.40;3.70;;;;;;;33.04;24.96;99066.37;136088;1276;22762;-70
2023/06/06 09:29:07;;;;;;;13.40;3.60;;;;;;;33.05;24.87;99065.30;135883;1276;22516;-71
2023/06/06 09:32:10;;;;;;;14.60;3.80;;;;;;;33.26;25.43;99068.95;136033;1276;22527;-72
2023/06/06 09:35:13;;;;;;;15.70;4.00;;;;;;;33.87;25.94;99062.63;136039;1276;22523;-70
2023/06/06 09:38:16;;;;;;;13.30;3.60;;;;;;;34.33;24.75;99060.14;136051;1276;22557;-72
2023/06/06 09:41:19;;;;;;;16.80;3.60;;;;;;;34.72;24.19;99052.89;136068;1276;22520;-67
2023/06/06 09:44:22;;;;;;;13.60;3.70;;;;;;;34.89;23.70;99054.25;135918;1276;22516;-71
2023/06/06 09:47:24;;;;;;;10.70;3.60;;;;;;;35.11;23.64;99044.28;135893;1276;22535;-69
2023/06/06 09:50:31;;;;;;;11.90;3.70;;;;;;;35.30;23.83;99048.99;136025;1276;22534;-76
2023/06/06 09:53:34;;;;;;;14.80;3.60;;;;;;;35.55;23.62;99050.77;136053;1258;22535;-72
2023/06/06 09:56:39;;;;;;;12.80;3.50;;;;;;;35.51;23.44;99054.42;136011;1259;22509;-66
2023/06/06 09:59:42;;;;;;;15.20;3.60;;;;;;;34.90;23.17;99048.41;136089;1276;22526;-70
2023/06/06 10:02:45;;;;;;;13.60;3.50;;;;;;;34.69;23.65;99045.23;136032;1276;22625;-72
2023/06/06 10:05:49;;;;;;;14.40;3.90;;;;;;;34.61;24.18;99049.55;136067;1253;23517;-73
2023/06/06 10:08:53;;;;;;;14.60;3.80;;;;;;;34.04;23.17;99046.80;136037;1276;22520;-70
2023/06/06 10:11:56;;;;;;;13.50;3.50;;;;;;;33.64;24.17;99046.49;136054;1257;22523;-72
2023/06/06 10:14:59;;;;;;;12.40;3.50;;;;;;;33.76;24.23;99042.52;136034;1260;22526;-72
2023/06/06 10:18:02;;;;;;;14.70;3.90;;;;;;;33.83;24.24;99045.72;136046;1275;22546;-73
2023/06/06 10:21:06;;;;;;;10.40;3.40;;;;;;;34.06;24.77;99037.80;136077;1259;22542;-72
2023/06/06 10:24:16;;;;;;;14.30;4.10;;;;;;;34.18;24.27;99036.13;136030;1276;22569;-69
2023/06/06 10:27:19;;;;;;;11.70;3.70;;;;;;;34.41;24.87;99035.63;135952;1274;22547;-72
2023/06/06 10:30:22;;;;;;;18.90;4.00;;;;;;;34.82;24.99;99029.48;136074;1276;22542;-70
2023/06/06 10:33:26;;;;;;;16.30;3.90;;;;;;;34.66;24.13;99032.32;136044;1259;22639;-72
2023/06/06 10:36:29;;;;;;;12.70;3.70;;;;;;;34.49;24.22;99027.34;135971;1276;22621;-69
2023/06/06 10:39:32;;;;;;;11.90;3.70;;;;;;;34.44;24.45;99021.81;136049;1276;22535;-67
2023/06/06 10:42:35;;;;;;;15.70;3.90;;;;;;;34.41;24.67;99025.80;135890;1260;22531;-71
2023/06/06 10:45:38;;;;;;;15.80;3.80;;;;;;;34.54;24.83;99031.48;135938;1276;22535;-71
2023/06/06 10:48:41;;;;;;;11.80;3.50;;;;;;;34.93;24.88;99027.00;136054;1276;22549;-74
2023/06/06 10:51:44;;;;;;;17.10;3.50;;;;;;;35.02;23.82;99026.23;136000;1276;22531;-72
2023/06/06 10:54:47;;;;;;;16.30;3.70;;;;;;;34.17;24.35;99025.59;135812;1259;278767;-68
2023/06/06 10:57:50;;;;;;;13.10;3.50;;;;;;;33.75;25.01;99028.84;136048;1276;24475;-70
2023/06/06 11:00:53;;;;;;;14.10;3.50;;;;;;;33.38;25.13;99031.40;136051;1258;24348;-74
2023/06/06 11:04:05;;;;;;;15.40;3.90;;;;;;;33.03;25.16;99028.48;135923;1276;22516;-69
2023/06/06 11:07:08;;;;;;;16.90;4.20;;;;;;;32.77;25.40;99024.15;135915;1276;22512;-73
2023/06/06 11:10:11;;;;;;;15.20;4.00;;;;;;;32.78;25.73;99022.88;136063;1272;22539;-71
2023/06/06 11:13:14;;;;;;;14.10;3.90;;;;;;;32.82;26.19;99021.40;136050;1276;22670;-76
2023/06/06 11:16:17;;;;;;;14.80;4.20;;;;;;;32.88;26.08;99020.34;136062;1276;22533;-70
2023/06/06 11:19:21;;;;;;;14.00;4.00;;;;;;;32.87;25.85;99020.42;136032;1276;22527;-71
2023/06/06 11:22:24;;;;;;;17.10;4.00;;;;;;;32.68;26.36;99019.69;136069;1259;22588;-70
2023/06/06 11:25:27;;;;;;;16.30;3.90;;;;;;;32.70;26.59;99018.34;136045;1276;22538;-69
2023/06/06 11:28:30;;;;;;;18.20;4.40;;;;;;;32.64;26.89;99018.49;136011;1259;24084;-71
2023/06/06 11:31:35;;;;;;;15.60;4.10;;;;;;;32.64;26.52;99019.41;135899;1266;24388;-68
2023/06/06 11:34:38;;;;;;;16.80;4.10;;;;;;;32.62;26.86;99015.13;136079;1276;24258;-72
2023/06/06 11:37:42;;;;;;;16.40;4.30;;;;;;;32.68;26.92;99013.87;136073;1256;24365;-75
2023/06/06 11:40:45;;;;;;;15.90;3.70;;;;;;;32.77;27.33;99012.88;136013;1256;22528;-74
2023/06/06 11:43:48;;;;;;;15.10;3.70;;;;;;;33.04;27.22;99016.10;136035;1276;22530;-70
2023/06/06 11:46:51;;;;;;;13.50;3.80;;;;;;;33.06;27.06;99014.63;135926;1259;22527;-70
2023/06/06 11:49:54;;;;;;;14.80;3.40;;;;;;;33.05;27.69;99015.00;136049;1259;22639;-75
2023/06/06 11:52:57;;;;;;;11.00;3.20;;;;;;;33.12;27.56;99011.67;136043;1259;24209;-73
2023/06/06 11:56:02;;;;;;;16.00;3.40;;;;;;;33.08;27.88;99017.55;136055;1259;22509;-72
2023/06/06 11:59:05;;;;;;;22.40;3.70;;;;;;;33.01;27.69;99014.18;136059;1270;22559;-71
2023/06/06 12:02:08;;;;;;;12.70;3.20;;;;;;;33.09;28.22;99013.95;136083;1276;22547;-68
2023/06/06 12:05:11;;;;;;;15.10;3.40;;;;;;;33.16;28.01;99015.59;136052;1259;22528;-71
2023/06/06 12:08:14;;;;;;;17.40;3.60;;;;;;;33.15;28.10;99009.13;136002;1276;22520;-75
2023/06/06 12:11:17;;;;;;;13.30;3.60;;;;;;;33.28;28.75;99007.88;136024;1259;22521;-70
2023/06/06 12:14:21;;;;;;;14.40;3.80;;;;;;;33.60;27.96;99005.95;136080;1276;22537;-74
2023/06/06 12:17:24;;;;;;;12.40;3.60;;;;;;;33.57;27.76;99001.70;136047;1259;22769;-72
2023/06/06 12:20:26;;;;;;;12.10;3.20;;;;;;;33.46;27.62;99004.36;135956;1276;22547;-74
2023/06/06 12:23:30;;;;;;;17.30;3.60;;;;;;;33.46;27.98;99000.88;135971;1276;25323;-70
2023/06/06 12:26:33;;;;;;;14.70;3.80;;;;;;;33.44;28.11;99001.92;135946;1276;22633;-69
2023/06/06 12:29:36;;;;;;;15.30;4.00;;;;;;;33.53;28.24;98997.73;135935;1276;22532;-70
2023/06/06 12:32:40;;;;;;;16.30;3.70;;;;;;;33.65;27.99;98997.53;135972;1276;22516;-75
2023/06/06 12:35:45;;;;;;;13.30;3.30;;;;;;;33.54;27.65;98994.59;136051;1276;24442;-73
2023/06/06 12:38:47;;;;;;;11.90;3.90;;;;;;;33.42;27.94;98994.60;136016;1276;22510;-72
2023/06/06 12:41:51;;;;;;;13.00;3.70;;;;;;;33.37;27.21;98998.13;136028;1276;22581;-73
2023/06/06 12:44:53;;;;;;;11.10;3.20;;;;;;;33.21;26.79;98988.30;136087;1259;22548;-75
2023/06/06 12:47:57;;;;;;;12.30;3.40;;;;;;;33.11;27.47;98990.85;136026;1258;22636;-74
2023/06/06 12:51:01;;;;;;;13.70;3.40;;;;;;;33.08;27.85;98991.16;136051;1259;22547;-73
2023/06/06 12:54:05;;;;;;;16.20;3.80;;;;;;;33.04;27.57;98989.85;136039;1276;22523;-69
2023/06/06 12:57:08;;;;;;;18.30;4.10;;;;;;;32.98;27.86;98987.61;136074;1276;25591;-71
2023/06/06 13:00:13;;;;;;;15.20;3.80;;;;;;;32.75;27.74;98988.26;136080;1276;22562;-73
2023/06/06 13:03:17;;;;;;;14.10;3.70;;;;;;;32.52;27.23;98985.76;136045;1276;22521;-67
2023/06/06 13:06:20;;;;;;;13.40;3.60;;;;;;;32.19;27.11;98985.45;135937;1276;22527;-74
2023/06/06 13:09:23;;;;;;;11.60;3.50;;;;;;;32.00;27.57;98985.04;136066;1276;22566;-73
2023/06/06 13:12:26;;;;;;;16.30;3.80;;;;;;;31.85;27.82;98979.27;136067;1276;22642;-71
2023/06/06 13:15:32;;;;;;;17.00;3.70;;;;;;;31.57;28.05;98977.89;136067;1276;25474;-68
2023/06/06 13:18:36;;;;;;;14.10;3.80;;;;;;;31.35;28.65;98979.92;136117;1258;22516;-73
2023/06/06 13:21:39;;;;;;;13.20;3.70;;;;;;;31.19;28.76;98978.14;136067;1259;22704;-70
2023/06/06 13:24:42;;;;;;;13.20;3.50;;;;;;;31.01;29.05;98977.55;136087;1276;22626;-75
2023/06/06 13:27:45;;;;;;;12.10;3.40;;;;;;;30.88;29.40;98980.36;136067;1276;25316;-72
2023/06/06 13:30:48;;;;;;;10.40;3.60;;;;;;;30.68;29.66;98981.02;136068;1276;22551;-70
2023/06/06 13:33:51;;;;;;;15.10;3.80;;;;;;;30.42;30.03;98976.67;136082;1276;25135;-70
2023/06/06 13:36:55;;;;;;;15.30;3.70;;;;;;;30.33;30.21;98981.59;136025;1276;22533;-72
2023/06/06 13:39:58;;;;;;;17.30;3.90;;;;;;;30.10;30.71;98986.27;136093;1276;22539;-72
2023/06/06 13:43:06;;;;;;;20.30;4.50;;;;;;;29.93;31.50;98988.77;136077;1276;22529;-74
2023/06/06 13:46:10;;;;;;;22.00;4.70;;;;;;;29.56;32.47;98990.06;136045;1276;22517;-71
2023/06/06 13:49:14;;;;;;;19.20;4.80;;;;;;;29.24;32.95;98991.77;136042;1276;22516;-71
2023/06/06 13:52:17;;;;;;;23.10;5.00;;;;;;;29.00;33.74;98991.48;136054;1276;22770;-69
2023/06/06 13:55:21;;;;;;;20.30;5.00;;;;;;;28.71;34.65;98989.88;136054;1276;23872;-68
2023/06/06 13:58:24;;;;;;;19.60;4.50;;;;;;;28.44;35.30;98990.88;136039;1276;22527;-66
2023/06/06 14:01:28;;;;;;;17.40;4.80;;;;;;;28.26;35.97;98988.44;136071;1276;22524;-67
2023/06/06 14:04:32;;;;;;;17.40;5.20;;;;;;;28.15;36.31;98991.41;136039;1276;22534;-67
2023/06/06 14:07:36;;;;;;;20.80;5.40;;;;;;;28.22;36.83;98994.82;136080;1276;22525;-71